Time;durP1;ratioP1;P1;durP2;ratioP2;P2;SDS_P1;SDS_P2;PMS_P1;PMS_P2;Temp;Humidity;BMP_temperature;BMP_pressure;BME280_temperature;BME280_humidity;BME280_pressure;Samples;Min_cycle;Max_cycle;Signal;HPM_P1;HPM_P2
2022/05/16 00:00:38;;;;;;;12.88;12.48;;;;;;;;;;5092233;28;20197;-67
2022/05/16 00:03:07;;;;;;;12.95;12.55;;;;;;;;;;5092102;28;20272;-68
2022/05/16 00:05:34;;;;;;;13.18;12.77;;;;;;;;;;5092085;28;20221;-67
2022/05/16 00:08:01;;;;;;;13.45;12.95;;;;;;;;;;5091945;28;20190;-67
2022/05/16 00:10:28;;;;;;;12.90;12.50;;;;;;;;;;5093454;28;20790;-68
2022/05/16 00:12:54;;;;;;;12.68;12.27;;;;;;;;;;5096035;28;20288;-68
2022/05/16 00:15:23;;;;;;;12.13;11.73;;;;;;;;;;5095479;28;20225;-68
2022/05/16 00:17:49;;;;;;;11.98;11.57;;;;;;;;;;5095422;28;20189;-68
2022/05/16 00:20:18;;;;;;;12.52;12.13;;;;;;;;;;5095361;28;20289;-67
2022/05/16 00:22:44;;;;;;;12.50;12.10;;;;;;;;;;5095529;28;20684;-67
2022/05/16 00:25:12;;;;;;;12.57;12.18;;;;;;;;;;5095606;28;20247;-68
2022/05/16 00:27:39;;;;;;;12.90;12.50;;;;;;;;;;5095557;28;20273;-67
2022/05/16 00:30:07;;;;;;;12.40;12.00;;;;;;;;;;5095803;28;20193;-67
2022/05/16 00:32:34;;;;;;;12.13;11.73;;;;;;;;;;5096019;28;20247;-67
2022/05/16 00:35:01;;;;;;;12.27;11.88;;;;;;;;;;5095423;28;20221;-67
2022/05/16 00:37:29;;;;;;;12.18;11.77;;;;;;;;;;5095327;28;20232;-67
2022/05/16 00:39:55;;;;;;;12.40;12.00;;;;;;;;;;5095010;28;20237;-67
2022/05/16 00:42:22;;;;;;;12.02;11.63;;;;;;;;;;5095171;28;20225;-67
2022/05/16 00:44:49;;;;;;;11.82;11.43;;;;;;;;;;5094956;28;20226;-67
2022/05/16 00:47:16;;;;;;;12.00;11.60;;;;;;;;;;5094910;28;20656;-67
2022/05/16 00:49:43;;;;;;;11.40;11.00;;;;;;;;;;5095431;28;20243;-67
2022/05/16 00:52:13;;;;;;;11.20;10.90;;;;;;;;;;5094842;28;20285;-68
2022/05/16 00:54:43;;;;;;;11.80;11.40;;;;;;;;;;5094986;28;20204;-67
2022/05/16 00:57:15;;;;;;;11.50;11.10;;;;;;;;;;5094725;28;20193;-68
2022/05/16 00:59:52;;;;;;;11.18;10.88;;;;;;;;;;5094691;28;20194;-67
2022/05/16 01:05:06;;;;;;;11.32;10.98;;;;;;;;;;5094931;28;20564;-68
2022/05/16 01:07:34;;;;;;;10.93;10.63;;;;;;;;;;5094818;28;20194;-68
2022/05/16 01:10:02;;;;;;;10.75;10.45;;;;;;;;;;5094507;28;20313;-68
2022/05/16 01:12:31;;;;;;;10.95;10.65;;;;;;;;;;5094693;28;20198;-68
2022/05/16 01:14:58;;;;;;;11.10;10.80;;;;;;;;;;5094365;28;20190;-67
2022/05/16 01:17:25;;;;;;;10.57;10.27;;;;;;;;;;5094617;28;20297;-67
2022/05/16 01:19:52;;;;;;;11.77;11.38;;;;;;;;;;5094235;28;20197;-67
2022/05/16 01:22:23;;;;;;;11.45;11.05;;;;;;;;;;5093649;28;20707;-67
2022/05/16 01:24:50;;;;;;;10.80;10.50;;;;;;;;;;5094220;28;20734;-67
2022/05/16 01:27:17;;;;;;;10.88;10.57;;;;;;;;;;5094225;28;20219;-68
2022/05/16 01:29:43;;;;;;;10.90;10.60;;;;;;;;;;5094096;28;20728;-67
2022/05/16 01:32:10;;;;;;;10.50;10.20;;;;;;;;;;5093981;28;20194;-68
2022/05/16 01:34:37;;;;;;;10.60;10.30;;;;;;;;;;5094232;28;20571;-67
2022/05/16 01:37:04;;;;;;;10.48;10.18;;;;;;;;;;5093957;28;20247;-67
2022/05/16 01:39:32;;;;;;;10.90;10.60;;;;;;;;;;5093860;28;20276;-67
2022/05/16 01:41:59;;;;;;;10.23;9.93;;;;;;;;;;5094065;28;20315;-67
2022/05/16 01:44:26;;;;;;;10.50;10.20;;;;;;;;;;5093755;28;20280;-67
2022/05/16 01:46:52;;;;;;;11.18;10.88;;;;;;;;;;5093730;28;20613;-67
2022/05/16 01:49:19;;;;;;;10.65;10.35;;;;;;;;;;5093964;28;20220;-67
2022/05/16 01:51:46;;;;;;;10.60;10.30;;;;;;;;;;5093947;28;20272;-67
2022/05/16 01:54:12;;;;;;;10.90;10.60;;;;;;;;;;5093891;28;20190;-67
2022/05/16 01:56:40;;;;;;;11.15;10.77;;;;;;;;;;5093820;28;20190;-67
2022/05/16 01:59:07;;;;;;;11.40;11.00;;;;;;;;;;5093835;28;20202;-67
2022/05/16 02:01:34;;;;;;;11.52;11.13;;;;;;;;;;5093334;28;20221;-68
2022/05/16 02:04:01;;;;;;;11.38;10.98;;;;;;;;;;5093710;28;20571;-67
2022/05/16 02:06:28;;;;;;;11.50;11.10;;;;;;;;;;5093682;28;20203;-67
2022/05/16 02:08:55;;;;;;;11.85;11.45;;;;;;;;;;5093589;28;20281;-67
2022/05/16 02:11:22;;;;;;;11.90;11.50;;;;;;;;;;5093378;28;20234;-67
2022/05/16 02:13:50;;;;;;;11.70;11.30;;;;;;;;;;5093199;28;20280;-67
2022/05/16 02:16:16;;;;;;;11.90;11.50;;;;;;;;;;5093193;28;20189;-68
2022/05/16 02:18:43;;;;;;;11.90;11.50;;;;;;;;;;5093447;28;20272;-67
2022/05/16 02:26:38;;;;;;;11.52;11.13;;;;;;;;;;5093698;28;20193;-67
2022/05/16 02:29:06;;;;;;;12.00;11.60;;;;;;;;;;5093232;28;20296;-67
2022/05/16 02:31:32;;;;;;;11.80;11.40;;;;;;;;;;5092890;28;20193;-67
2022/05/16 02:33:59;;;;;;;12.02;11.63;;;;;;;;;;5092155;28;20280;-67
2022/05/16 02:36:26;;;;;;;11.90;11.50;;;;;;;;;;5093126;28;20276;-67
2022/05/16 02:38:53;;;;;;;11.55;11.15;;;;;;;;;;5093077;28;20193;-67
2022/05/16 02:41:19;;;;;;;11.55;11.15;;;;;;;;;;5092995;28;20193;-67
2022/05/16 02:43:46;;;;;;;11.82;11.43;;;;;;;;;;5092974;28;20225;-68
2022/05/16 02:46:14;;;;;;;11.70;11.30;;;;;;;;;;5093152;28;20222;-67
2022/05/16 02:48:41;;;;;;;12.13;11.73;;;;;;;;;;5092833;28;20273;-68
2022/05/16 02:51:07;;;;;;;12.45;12.05;;;;;;;;;;5092577;28;20281;-85
2022/05/16 02:53:34;;;;;;;12.00;11.60;;;;;;;;;;5092461;28;20685;-68
2022/05/16 02:56:01;;;;;;;11.50;11.10;;;;;;;;;;5093032;28;20189;-67
2022/05/16 02:58:28;;;;;;;10.88;10.57;;;;;;;;;;5092775;28;20241;-67
2022/05/16 03:00:54;;;;;;;11.10;10.80;;;;;;;;;;5092711;28;20201;-68
2022/05/16 03:03:23;;;;;;;11.05;10.75;;;;;;;;;;5092640;28;20229;-68
2022/05/16 03:05:50;;;;;;;10.80;10.50;;;;;;;;;;5092327;28;20243;-68
2022/05/16 03:08:17;;;;;;;10.80;10.50;;;;;;;;;;5092305;28;20571;-68
2022/05/16 03:10:44;;;;;;;11.07;10.77;;;;;;;;;;5092115;28;20702;-68
2022/05/16 03:13:10;;;;;;;11.00;10.70;;;;;;;;;;5092523;28;20198;-67
2022/05/16 03:15:37;;;;;;;11.10;10.80;;;;;;;;;;5092279;28;20240;-68
2022/05/16 03:18:04;;;;;;;11.00;10.70;;;;;;;;;;5092483;28;20232;-68
2022/05/16 03:20:32;;;;;;;11.02;10.73;;;;;;;;;;5092514;28;20212;-68
2022/05/16 03:22:59;;;;;;;11.27;10.87;;;;;;;;;;5092012;28;20229;-68
2022/05/16 03:25:26;;;;;;;11.60;11.20;;;;;;;;;;5092466;28;20198;-68
2022/05/16 03:27:52;;;;;;;11.65;11.25;;;;;;;;;;5092420;28;20297;-68
2022/05/16 03:30:19;;;;;;;10.60;10.30;;;;;;;;;;5092342;28;20194;-68
2022/05/16 03:32:46;;;;;;;10.20;9.90;;;;;;;;;;5092049;28;20673;-67
2022/05/16 03:35:12;;;;;;;10.23;9.93;;;;;;;;;;5092035;28;20704;-68
2022/05/16 03:37:40;;;;;;;10.40;10.10;;;;;;;;;;5092297;28;20194;-68
2022/05/16 03:42:52;;;;;;;10.55;10.25;;;;;;;;;;5092593;28;20655;-68
2022/05/16 03:45:19;;;;;;;11.60;11.20;;;;;;;;;;5095743;28;20205;-68
2022/05/16 03:47:45;;;;;;;13.40;12.90;;;;;;;;;;5096048;28;20656;-68
2022/05/16 03:50:12;;;;;;;14.20;13.70;;;;;;;;;;5096340;28;20233;-68
2022/05/16 03:52:41;;;;;;;14.50;13.90;;;;;;;;;;5096469;28;20197;-68
2022/05/16 03:55:08;;;;;;;15.75;15.05;;;;;;;;;;5095904;28;20667;-68
2022/05/16 03:57:35;;;;;;;15.40;14.80;;;;;;;;;;5095828;28;20703;-68
2022/05/16 04:00:01;;;;;;;15.82;15.13;;;;;;;;;;5096147;28;20226;-67
2022/05/16 04:02:29;;;;;;;16.63;15.93;;;;;;;;;;5095979;28;20304;-67
2022/05/16 04:04:55;;;;;;;16.65;15.95;;;;;;;;;;5095741;28;20254;-68
2022/05/16 04:07:23;;;;;;;17.05;16.35;;;;;;;;;;5096822;28;20571;-68
2022/05/16 04:09:51;;;;;;;17.38;16.67;;;;;;;;;;5095376;28;20600;-68
2022/05/16 04:12:17;;;;;;;17.10;16.40;;;;;;;;;;5095717;28;20198;-67
2022/05/16 04:14:44;;;;;;;16.65;15.95;;;;;;;;;;5095500;28;20759;-68
2022/05/16 04:17:11;;;;;;;16.60;15.90;;;;;;;;;;5095796;28;20272;-68
2022/05/16 04:19:37;;;;;;;17.00;16.20;;;;;;;;;;5095981;28;20197;-68
2022/05/16 04:22:04;;;;;;;17.92;17.13;;;;;;;;;;5095588;28;20281;-68
2022/05/16 04:24:31;;;;;;;17.45;16.65;;;;;;;;;;5095647;28;20296;-68
2022/05/16 04:26:59;;;;;;;18.27;17.40;;;;;;;;;;5095619;28;20193;-68
2022/05/16 04:29:26;;;;;;;17.23;16.42;;;;;;;;;;5095551;28;20194;-68
2022/05/16 04:31:52;;;;;;;17.05;16.25;;;;;;;;;;5095204;28;20652;-68
2022/05/16 04:34:19;;;;;;;18.33;17.42;;;;;;;;;;5095430;28;20279;-68
2022/05/16 04:36:46;;;;;;;18.70;17.80;;;;;;;;;;5095411;28;20284;-68
2022/05/16 04:39:12;;;;;;;19.27;18.27;;;;;;;;;;5095061;28;20286;-68
2022/05/16 04:44:25;;;;;;;19.13;18.13;;;;;;;;;;5094987;28;20216;-69
2022/05/16 04:46:51;;;;;;;18.63;17.73;;;;;;;;;;5095221;28;20194;-68
2022/05/16 04:49:18;;;;;;;20.05;19.05;;;;;;;;;;5094922;28;20193;-68
2022/05/16 04:51:45;;;;;;;18.70;17.80;;;;;;;;;;5094852;28;20208;-68
2022/05/16 04:54:11;;;;;;;18.50;17.60;;;;;;;;;;5095129;28;20311;-68
2022/05/16 04:56:38;;;;;;;18.35;17.45;;;;;;;;;;5094155;28;20190;-68
2022/05/16 04:59:05;;;;;;;18.48;17.58;;;;;;;;;;5094723;28;20675;-68
2022/05/16 05:01:34;;;;;;;17.92;17.02;;;;;;;;;;5094629;28;20677;-68
2022/05/16 05:04:00;;;;;;;18.35;17.45;;;;;;;;;;5094534;28;20230;-68
2022/05/16 05:06:27;;;;;;;17.52;16.73;;;;;;;;;;5094569;28;20573;-68
2022/05/16 05:08:54;;;;;;;18.00;17.20;;;;;;;;;;5094793;28;20194;-68
2022/05/16 05:16:50;;;;;;;17.17;16.38;;;;;;;;;;5095034;28;20650;-68
2022/05/16 05:19:16;;;;;;;16.92;16.13;;;;;;;;;;5094627;28;20194;-68
2022/05/16 05:21:43;;;;;;;16.98;16.17;;;;;;;;;;5094549;28;20198;-68
2022/05/16 05:24:10;;;;;;;16.27;15.55;;;;;;;;;;5094082;28;20225;-68
2022/05/16 05:26:39;;;;;;;16.63;15.82;;;;;;;;;;5094710;28;20221;-68
2022/05/16 05:29:05;;;;;;;16.88;16.08;;;;;;;;;;5094056;28;20664;-68
2022/05/16 05:31:32;;;;;;;17.10;16.30;;;;;;;;;;5094325;28;20648;-68
2022/05/16 05:34:01;;;;;;;16.70;16.00;;;;;;;;;;5094328;28;20229;-68
2022/05/16 05:36:28;;;;;;;15.95;15.35;;;;;;;;;;5094517;28;20648;-68
2022/05/16 05:38:55;;;;;;;16.70;16.00;;;;;;;;;;5094228;28;20272;-69
2022/05/16 05:41:22;;;;;;;16.70;16.00;;;;;;;;;;5094168;28;20660;-68
2022/05/16 05:43:49;;;;;;;16.23;15.52;;;;;;;;;;5094063;28;20260;-68
2022/05/16 05:46:17;;;;;;;16.60;15.90;;;;;;;;;;5093782;28;20197;-69
2022/05/16 05:48:43;;;;;;;16.42;15.73;;;;;;;;;;5093692;28;20579;-68
2022/05/16 05:51:11;;;;;;;16.20;15.50;;;;;;;;;;5093983;28;20205;-69
2022/05/16 05:53:39;;;;;;;16.58;15.88;;;;;;;;;;5093912;28;20620;-68
2022/05/16 05:56:06;;;;;;;16.27;15.57;;;;;;;;;;5093647;28;20194;-69
2022/05/16 05:58:33;;;;;;;16.40;15.70;;;;;;;;;;5093806;28;20277;-70
2022/05/16 06:01:00;;;;;;;16.55;15.85;;;;;;;;;;5093826;28;20239;-69
2022/05/16 06:03:26;;;;;;;17.67;16.83;;;;;;;;;;5093386;28;20703;-68
2022/05/16 06:05:53;;;;;;;17.77;16.98;;;;;;;;;;5093372;28;20200;-68
2022/05/16 06:08:21;;;;;;;16.88;16.13;;;;;;;;;;5093595;28;20221;-68
2022/05/16 06:10:49;;;;;;;17.27;16.48;;;;;;;;;;5093241;28;20701;-69
2022/05/16 06:13:16;;;;;;;16.95;16.15;;;;;;;;;;5093246;28;20194;-69
2022/05/16 06:15:43;;;;;;;16.58;15.88;;;;;;;;;;5093993;28;20281;-70
2022/05/16 06:18:10;;;;;;;17.08;16.27;;;;;;;;;;5093480;28;20206;-69
2022/05/16 06:20:37;;;;;;;17.00;16.20;;;;;;;;;;5093400;28;20328;-69
2022/05/16 06:23:03;;;;;;;16.40;15.70;;;;;;;;;;5093270;28;20218;-69
2022/05/16 06:25:33;;;;;;;16.50;15.80;;;;;;;;;;5093235;28;20584;-68
2022/05/16 06:28:01;;;;;;;17.38;16.58;;;;;;;;;;5092961;28;20694;-69
2022/05/16 06:30:28;;;;;;;16.35;15.65;;;;;;;;;;5092933;28;20256;-69
2022/05/16 06:32:54;;;;;;;17.10;16.30;;;;;;;;;;5093218;28;20259;-68
2022/05/16 06:35:21;;;;;;;17.13;16.33;;;;;;;;;;5093095;28;20200;-69
2022/05/16 06:37:48;;;;;;;17.58;16.67;;;;;;;;;;5092814;28;20240;-68
2022/05/16 06:40:15;;;;;;;17.55;16.75;;;;;;;;;;5093063;28;20280;-68
2022/05/16 06:42:43;;;;;;;18.00;17.10;;;;;;;;;;5092982;28;20208;-69
2022/05/16 06:45:11;;;;;;;17.08;16.27;;;;;;;;;;5092672;28;20198;-69
2022/05/16 06:47:37;;;;;;;18.00;17.10;;;;;;;;;;5092934;28;20197;-69
2022/05/16 06:50:04;;;;;;;17.98;17.08;;;;;;;;;;5092940;28;20280;-68
2022/05/16 06:52:31;;;;;;;17.85;16.95;;;;;;;;;;5092519;28;20281;-69
2022/05/16 06:54:58;;;;;;;17.50;16.60;;;;;;;;;;5092875;28;20638;-69
2022/05/16 06:57:25;;;;;;;17.27;16.48;;;;;;;;;;5092760;28;20596;-68
2022/05/16 06:59:53;;;;;;;18.38;17.48;;;;;;;;;;5092756;28;20229;-68
2022/05/16 07:02:19;;;;;;;17.48;16.67;;;;;;;;;;5092731;28;20189;-69
2022/05/16 07:04:46;;;;;;;18.25;17.35;;;;;;;;;;5092595;28;20290;-68
2022/05/16 07:07:13;;;;;;;18.17;17.27;;;;;;;;;;5092363;28;20679;-68
2022/05/16 07:09:40;;;;;;;17.42;16.63;;;;;;;;;;5092098;28;20284;-68
2022/05/16 07:12:07;;;;;;;17.67;16.77;;;;;;;;;;5092655;28;20247;-69
2022/05/16 07:14:34;;;;;;;17.58;16.67;;;;;;;;;;5092248;28;20648;-69
2022/05/16 07:17:02;;;;;;;17.55;16.65;;;;;;;;;;5092508;28;20200;-68
2022/05/16 07:19:31;;;;;;;18.27;17.38;;;;;;;;;;5091771;28;20236;-67
2022/05/16 07:21:58;;;;;;;17.90;17.00;;;;;;;;;;5092133;28;20288;-68
2022/05/16 07:24:24;;;;;;;17.77;16.88;;;;;;;;;;5092073;28;20675;-68
2022/05/16 07:29:47;;;;;;;17.75;16.90;;;;;;;;;;5010347;28;20567;-69
2022/05/16 07:32:15;;;;;;;17.98;17.08;;;;;;;;;;5071978;28;20222;-68
2022/05/16 07:34:41;;;;;;;18.40;17.50;;;;;;;;;;5092340;28;20288;-69
2022/05/16 07:37:09;;;;;;;18.08;17.17;;;;;;;;;;5092300;28;20295;-67
2022/05/16 07:39:36;;;;;;;17.55;16.75;;;;;;;;;;5092550;28;20198;-67
2022/05/16 07:42:04;;;;;;;18.13;17.30;;;;;;;;;;5091971;28;20243;-69
2022/05/16 07:44:30;;;;;;;18.27;17.38;;;;;;;;;;5092407;28;20229;-69
2022/05/16 07:46:57;;;;;;;17.42;16.63;;;;;;;;;;5092255;28;20194;-68
2022/05/16 07:49:25;;;;;;;17.63;16.83;;;;;;;;;;5092177;28;20204;-68
2022/05/16 07:51:52;;;;;;;17.80;16.90;;;;;;;;;;5091890;28;20571;-68
2022/05/16 07:54:18;;;;;;;17.63;16.83;;;;;;;;;;5092122;28;20660;-68
2022/05/16 07:56:45;;;;;;;17.80;17.00;;;;;;;;;;5091815;28;20241;-68
2022/05/16 07:59:12;;;;;;;17.55;16.75;;;;;;;;;;5091793;28;20624;-68
2022/05/16 08:01:39;;;;;;;17.90;17.00;;;;;;;;;;5091786;28;20280;-68
2022/05/16 08:04:07;;;;;;;18.08;17.17;;;;;;;;;;5091990;28;20329;-68
2022/05/16 08:06:35;;;;;;;18.00;17.10;;;;;;;;;;5092014;28;20197;-69
2022/05/16 08:11:46;;;;;;;17.45;16.65;;;;;;;;;;5091672;28;20303;-68
2022/05/16 08:14:13;;;;;;;17.60;16.80;;;;;;;;;;5091999;28;20573;-68
2022/05/16 08:16:40;;;;;;;17.25;16.45;;;;;;;;;;5091931;28;20197;-69
2022/05/16 08:19:07;;;;;;;17.33;16.52;;;;;;;;;;5091605;28;20194;-68
2022/05/16 08:21:36;;;;;;;17.58;16.77;;;;;;;;;;5091907;28;20292;-68
2022/05/16 08:24:04;;;;;;;17.73;16.92;;;;;;;;;;5091482;28;20309;-68
2022/05/16 08:26:31;;;;;;;17.55;16.75;;;;;;;;;;5091549;28;20215;-68
2022/05/16 08:28:58;;;;;;;17.42;16.63;;;;;;;;;;5091502;28;20675;-68
2022/05/16 08:31:28;;;;;;;17.35;16.55;;;;;;;;;;5093565;28;20248;-68
2022/05/16 08:33:55;;;;;;;17.38;16.58;;;;;;;;;;5095544;28;20224;-68
2022/05/16 08:41:53;;;;;;;16.70;16.00;;;;;;;;;;5095714;28;20247;-68
2022/05/16 08:44:21;;;;;;;17.15;16.35;;;;;;;;;;5095192;28;20261;-68
2022/05/16 08:46:50;;;;;;;17.30;16.50;;;;;;;;;;5095267;28;20198;-67
2022/05/16 08:49:18;;;;;;;16.90;16.20;;;;;;;;;;5094868;28;20577;-68
2022/05/16 08:51:48;;;;;;;16.90;16.20;;;;;;;;;;5095171;28;20296;-68
2022/05/16 08:54:25;;;;;;;16.83;16.13;;;;;;;;;;5095123;28;20197;-69
2022/05/16 08:56:52;;;;;;;16.98;16.27;;;;;;;;;;5094814;28;20190;-69
2022/05/16 08:59:21;;;;;;;17.00;16.30;;;;;;;;;;5094746;28;20288;-71
2022/05/16 09:01:51;;;;;;;17.20;16.50;;;;;;;;;;5094645;28;20643;-69
2022/05/16 09:04:21;;;;;;;16.77;16.08;;;;;;;;;;5094880;28;20229;-69
2022/05/16 09:06:51;;;;;;;20.20;19.25;;;;;;;;;;5095189;28;20255;-69
2022/05/16 09:09:20;;;;;;;17.25;16.55;;;;;;;;;;5094553;28;20251;-69
2022/05/16 09:11:53;;;;;;;16.73;16.02;;;;;;;;;;5094305;28;20324;-68
2022/05/16 09:14:27;;;;;;;17.15;16.45;;;;;;;;;;5094788;28;20182;-68
2022/05/16 09:16:58;;;;;;;16.83;16.13;;;;;;;;;;5094646;28;20269;-69
2022/05/16 09:19:34;;;;;;;16.65;15.95;;;;;;;;;;5094342;28;20230;-69
2022/05/16 09:22:03;;;;;;;16.98;16.27;;;;;;;;;;5094502;28;20225;-68
2022/05/16 09:24:35;;;;;;;19.33;18.15;;;;;;;;;;5094485;28;20355;-69
2022/05/16 09:27:08;;;;;;;16.95;16.25;;;;;;;;;;5094555;28;20245;-71
2022/05/16 09:29:39;;;;;;;16.95;16.25;;;;;;;;;;5094493;28;20186;-71
2022/05/16 09:32:08;;;;;;;16.85;16.15;;;;;;;;;;5094376;28;20190;-70
2022/05/16 09:34:35;;;;;;;17.25;16.55;;;;;;;;;;5094574;28;20194;-72
2022/05/16 09:37:02;;;;;;;17.02;16.33;;;;;;;;;;5093987;28;20194;-71
2022/05/16 09:39:31;;;;;;;17.02;16.33;;;;;;;;;;5093912;28;20743;-71
2022/05/16 09:42:02;;;;;;;16.85;16.15;;;;;;;;;;5093588;28;20284;-71
2022/05/16 09:44:32;;;;;;;17.15;16.45;;;;;;;;;;5094122;28;20227;-71
2022/05/16 09:47:16;;;;;;;16.77;16.08;;;;;;;;;;5094132;28;20717;-71
2022/05/16 09:49:43;;;;;;;16.65;15.95;;;;;;;;;;5093750;28;20200;-71
2022/05/16 09:52:16;;;;;;;16.80;16.10;;;;;;;;;;5094007;28;20220;-70
2022/05/16 09:54:43;;;;;;;16.85;16.15;;;;;;;;;;5093657;28;20596;-71
2022/05/16 09:57:16;;;;;;;16.85;16.15;;;;;;;;;;5093972;28;20294;-70
2022/05/16 09:59:45;;;;;;;16.65;15.95;;;;;;;;;;5094169;28;20190;-72
2022/05/16 10:02:14;;;;;;;16.92;16.23;;;;;;;;;;5093712;28;20622;-73
2022/05/16 10:04:43;;;;;;;16.75;16.05;;;;;;;;;;5093372;28;20221;-71
2022/05/16 10:07:10;;;;;;;16.48;15.77;;;;;;;;;;5093405;28;20194;-72
2022/05/16 10:09:38;;;;;;;16.27;15.57;;;;;;;;;;5093121;28;20251;-70
2022/05/16 10:12:08;;;;;;;16.40;15.70;;;;;;;;;;5093705;28;20266;-70
2022/05/16 10:14:39;;;;;;;16.98;16.27;;;;;;;;;;5093818;28;20232;-72
2022/05/16 10:17:07;;;;;;;16.73;16.02;;;;;;;;;;5093562;28;20186;-71
2022/05/16 10:19:35;;;;;;;16.48;15.77;;;;;;;;;;5093506;28;20193;-73
2022/05/16 10:22:03;;;;;;;15.85;15.25;;;;;;;;;;5093067;28;20190;-72
2022/05/16 10:24:31;;;;;;;16.42;15.73;;;;;;;;;;5093016;28;20275;-72
2022/05/16 10:27:01;;;;;;;16.70;16.00;;;;;;;;;;5093023;28;20193;-71
2022/05/16 10:29:30;;;;;;;16.67;15.98;;;;;;;;;;5093019;28;20197;-71
2022/05/16 10:34:47;;;;;;;16.40;15.70;;;;;;;;;;5093056;28;20262;-72
2022/05/16 10:37:14;;;;;;;17.02;16.33;;;;;;;;;;5093125;28;20196;-72
2022/05/16 10:39:42;;;;;;;16.48;15.77;;;;;;;;;;5093650;28;20258;-70
2022/05/16 10:42:11;;;;;;;16.65;15.95;;;;;;;;;;5092765;28;20315;-75
2022/05/16 10:44:40;;;;;;;16.70;16.00;;;;;;;;;;5092948;28;20257;-72
2022/05/16 10:47:11;;;;;;;16.63;15.93;;;;;;;;;;5093005;28;20198;-72
2022/05/16 10:49:42;;;;;;;16.45;15.75;;;;;;;;;;5092974;28;20273;-71
2022/05/16 10:52:27;;;;;;;16.50;15.80;;;;;;;;;;5092651;28;20186;-72
2022/05/16 10:54:54;;;;;;;20.25;19.13;;;;;;;;;;5092011;28;20233;-73
2022/05/16 10:57:26;;;;;;;16.58;15.88;;;;;;;;;;5093612;28;20236;-80
2022/05/16 11:00:00;;;;;;;16.90;16.20;;;;;;;;;;5092537;28;20735;-73
2022/05/16 11:02:39;;;;;;;16.83;16.13;;;;;;;;;;5092802;28;20197;-71
2022/05/16 11:05:25;;;;;;;16.65;15.95;;;;;;;;;;5092645;28;20248;-71
2022/05/16 11:07:56;;;;;;;16.70;16.00;;;;;;;;;;5092409;28;20185;-72
2022/05/16 11:10:25;;;;;;;16.83;16.13;;;;;;;;;;5092173;28;20715;-73
2022/05/16 11:13:00;;;;;;;16.83;16.13;;;;;;;;;;5092281;28;20280;-72
2022/05/16 11:15:29;;;;;;;16.75;16.05;;;;;;;;;;5092593;28;20190;-72
2022/05/16 11:18:00;;;;;;;16.98;16.27;;;;;;;;;;5092509;28;20201;-71
2022/05/16 11:20:28;;;;;;;17.27;16.48;;;;;;;;;;5092507;28;20569;-71
2022/05/16 11:22:56;;;;;;;16.85;16.15;;;;;;;;;;5092359;28;20229;-71
2022/05/16 11:25:26;;;;;;;16.63;15.93;;;;;;;;;;5092101;28;20226;-72
2022/05/16 11:27:58;;;;;;;16.73;16.02;;;;;;;;;;5092408;28;20205;-71
2022/05/16 11:30:31;;;;;;;16.75;16.05;;;;;;;;;;5092478;28;20709;-70
2022/05/16 11:33:08;;;;;;;17.13;16.42;;;;;;;;;;5092137;28;20274;-72
2022/05/16 11:35:37;;;;;;;16.90;16.20;;;;;;;;;;5092675;28;20254;-71
2022/05/16 11:38:14;;;;;;;16.90;16.20;;;;;;;;;;5092044;28;20208;-72
2022/05/16 11:40:46;;;;;;;16.63;15.93;;;;;;;;;;5092317;28;20277;-72
2022/05/16 11:43:17;;;;;;;17.80;17.00;;;;;;;;;;5092293;28;20189;-73
2022/05/16 11:46:14;;;;;;;17.02;16.23;;;;;;;;;;5091963;28;20296;-72
2022/05/16 11:48:49;;;;;;;17.23;16.42;;;;;;;;;;5049905;28;20229;-72
2022/05/16 11:51:21;;;;;;;16.63;15.93;;;;;;;;;;5084125;28;20193;-72
2022/05/16 11:53:50;;;;;;;16.90;16.20;;;;;;;;;;5092235;28;20186;-73
2022/05/16 12:02:12;;;;;;;17.55;16.75;;;;;;;;;;5092216;28;20193;-73
2022/05/16 12:04:43;;;;;;;17.33;16.52;;;;;;;;;;5092589;28;20636;-71
2022/05/16 12:07:14;;;;;;;17.42;16.63;;;;;;;;;;5096155;28;20268;-71
2022/05/16 12:09:51;;;;;;;17.38;16.58;;;;;;;;;;5095764;28;20213;-72
2022/05/16 12:12:28;;;;;;;17.17;16.38;;;;;;;;;;5096003;28;20272;-74
2022/05/16 12:15:18;;;;;;;17.15;16.35;;;;;;;;;;5095919;28;20268;-72
2022/05/16 12:17:50;;;;;;;17.23;16.42;;;;;;;;;;5095849;28;20222;-72
2022/05/16 12:20:33;;;;;;;17.35;16.55;;;;;;;;;;5095879;28;20213;-72
2022/05/16 12:23:00;;;;;;;17.10;16.30;;;;;;;;;;5095804;28;20603;-72
2022/05/16 12:25:32;;;;;;;17.23;16.42;;;;;;;;;;5095338;28;20275;-72
2022/05/16 12:28:23;;;;;;;17.08;16.27;;;;;;;;;;5095325;28;20194;-72
2022/05/16 12:30:51;;;;;;;17.02;16.23;;;;;;;;;;5084934;28;20201;-72
2022/05/16 12:33:32;;;;;;;16.75;15.95;;;;;;;;;;5095229;28;20237;-73
2022/05/16 12:36:00;;;;;;;17.33;16.52;;;;;;;;;;5095269;28;20201;-72
2022/05/16 12:38:28;;;;;;;17.75;16.95;;;;;;;;;;5095113;28;20633;-72
2022/05/16 12:41:02;;;;;;;17.00;16.20;;;;;;;;;;5095410;28;20620;-72
2022/05/16 12:43:39;;;;;;;17.00;16.20;;;;;;;;;;5095404;28;20226;-72
2022/05/16 12:46:12;;;;;;;17.08;16.27;;;;;;;;;;5095250;28;20309;-72
2022/05/16 12:48:47;;;;;;;17.33;16.52;;;;;;;;;;5094983;28;20225;-72
2022/05/16 12:51:29;;;;;;;17.13;16.35;;;;;;;;;;5094978;28;20662;-73
2022/05/16 12:54:09;;;;;;;17.13;16.33;;;;;;;;;;5094903;28;20277;-72
2022/05/16 12:56:39;;;;;;;17.90;17.10;;;;;;;;;;5095136;28;20268;-72
2022/05/16 12:59:09;;;;;;;17.65;16.85;;;;;;;;;;5095599;28;20201;-72
2022/05/16 13:01:39;;;;;;;17.48;16.67;;;;;;;;;;5094657;28;20656;-72
2022/05/16 13:04:11;;;;;;;18.65;17.77;;;;;;;;;;5094682;28;20283;-72
2022/05/16 13:06:53;;;;;;;17.60;16.80;;;;;;;;;;5094530;28;20650;-73
2022/05/16 13:09:34;;;;;;;17.38;16.58;;;;;;;;;;5093147;28;20701;-72
2022/05/16 13:12:05;;;;;;;17.45;16.65;;;;;;;;;;5094580;28;20186;-72
2022/05/16 13:14:35;;;;;;;21.35;20.13;;;;;;;;;;5095348;28;20251;-71
2022/05/16 13:17:04;;;;;;;17.38;16.58;;;;;;;;;;5093994;28;20220;-72
2022/05/16 13:19:32;;;;;;;17.30;16.50;;;;;;;;;;5094735;28;20201;-72
2022/05/16 13:22:03;;;;;;;17.55;16.75;;;;;;;;;;5094590;28;20276;-72
2022/05/16 13:24:32;;;;;;;17.38;16.58;;;;;;;;;;5094661;28;20221;-72
2022/05/16 13:29:44;;;;;;;17.90;17.00;;;;;;;;;;5094566;28;20185;-71
2022/05/16 13:32:12;;;;;;;27.77;25.67;;;;;;;;;;5094125;28;20198;-71
2022/05/16 13:34:44;;;;;;;18.05;17.15;;;;;;;;;;5094396;28;20627;-71
2022/05/16 13:37:11;;;;;;;17.65;16.85;;;;;;;;;;5094559;28;20197;-71
2022/05/16 13:39:42;;;;;;;17.48;16.67;;;;;;;;;;5093976;28;20647;-71
2022/05/16 13:42:09;;;;;;;17.65;16.85;;;;;;;;;;5093920;28;20700;-70
2022/05/16 13:44:36;;;;;;;17.85;17.05;;;;;;;;;;5094175;28;20556;-71
2022/05/16 13:47:04;;;;;;;17.83;17.02;;;;;;;;;;5093780;28;20231;-71
2022/05/16 13:49:32;;;;;;;17.83;17.02;;;;;;;;;;5094366;28;20227;-71
2022/05/16 13:51:59;;;;;;;17.85;17.05;;;;;;;;;;5093720;28;20573;-72
2022/05/16 13:54:28;;;;;;;17.80;17.00;;;;;;;;;;5093629;28;20289;-71
2022/05/16 13:56:57;;;;;;;18.00;17.20;;;;;;;;;;5093921;28;20197;-72
2022/05/16 13:59:24;;;;;;;17.73;16.92;;;;;;;;;;5093844;28;20221;-72
2022/05/16 14:01:53;;;;;;;18.05;17.15;;;;;;;;;;5093893;28;20190;-71
2022/05/16 14:04:20;;;;;;;17.90;17.10;;;;;;;;;;5093779;28;20197;-72
2022/05/16 14:06:50;;;;;;;18.50;17.60;;;;;;;;;;5094154;28;20697;-71
2022/05/16 14:09:19;;;;;;;17.63;16.83;;;;;;;;;;5093452;28;20284;-71
2022/05/16 14:11:46;;;;;;;17.80;17.00;;;;;;;;;;5093182;28;20240;-72
2022/05/16 14:14:16;;;;;;;17.83;17.02;;;;;;;;;;5093319;28;20190;-71
2022/05/16 14:16:49;;;;;;;17.75;16.95;;;;;;;;;;5093586;28;20229;-72
2022/05/16 14:19:30;;;;;;;17.63;16.83;;;;;;;;;;5093586;28;20218;-71
2022/05/16 14:22:01;;;;;;;17.50;16.70;;;;;;;;;;5093500;28;20269;-71
2022/05/16 14:24:34;;;;;;;17.33;16.52;;;;;;;;;;5093499;28;20200;-71
2022/05/16 14:27:01;;;;;;;17.70;16.90;;;;;;;;;;5093559;28;20214;-71
2022/05/16 14:29:31;;;;;;;17.42;16.63;;;;;;;;;;5092030;28;20620;-72
2022/05/16 14:32:06;;;;;;;17.40;16.60;;;;;;;;;;5092951;28;20194;-72
2022/05/16 14:34:36;;;;;;;17.35;16.55;;;;;;;;;;5093223;28;20284;-72
2022/05/16 14:37:05;;;;;;;17.90;17.10;;;;;;;;;;5092909;28;20208;-73
2022/05/16 14:39:33;;;;;;;17.60;16.80;;;;;;;;;;5092851;28;20205;-71
2022/05/16 14:42:07;;;;;;;17.40;16.60;;;;;;;;;;5092782;28;20229;-71
2022/05/16 14:44:37;;;;;;;17.85;17.05;;;;;;;;;;5092833;28;20192;-71
2022/05/16 14:47:16;;;;;;;17.45;16.65;;;;;;;;;;5092611;28;20283;-71
2022/05/16 14:49:43;;;;;;;17.55;16.75;;;;;;;;;;5093054;28;20190;-71
2022/05/16 14:52:10;;;;;;;17.60;16.80;;;;;;;;;;5093192;28;20200;-71
2022/05/16 14:54:39;;;;;;;17.25;16.45;;;;;;;;;;5092564;28;20734;-72
2022/05/16 14:57:07;;;;;;;17.30;16.50;;;;;;;;;;5092588;28;20200;-71
2022/05/16 14:59:34;;;;;;;17.30;16.50;;;;;;;;;;5092520;28;20233;-72
2022/05/16 15:04:46;;;;;;;17.38;16.58;;;;;;;;;;5092594;28;20209;-72
2022/05/16 15:07:15;;;;;;;17.33;16.52;;;;;;;;;;5092356;28;20606;-71
2022/05/16 15:09:42;;;;;;;17.67;16.88;;;;;;;;;;5092086;28;20229;-72